Dest Fox Harbr Too — ZCXB6 — position and weather

sailwx.info

Track history (hours):
 
Tides and Currents Weather Stations Pressure Air Temp Water Temp Dewpoint Dewpoint Depression Visibility Wind Speed Wind Dir Waves Ship Positions

Dest Fox Harbr Too

Last reported at 2014-Aug-30 06:32 UTC. Time now 2014-Sep-03 04:44 UTC.
Position N 49°16' W 066°10'.

Length 50 m; draft 2.4 m.

Type: Pleasure craft. MMSI: 319370000.

Date/timePositionNaut miles runAvg speedWind from/ knotsBaromVisibWave heightAir tempDewpointWater temp
2014-Aug-30 06:32N 49°16' W 066°10'1616.3
2014-Aug-30 05:33N 49°12' W 066°33'1616.1
2014-Aug-30 04:34N 49°06' W 066°56'1515.2
2014-Aug-30 03:33N 48°60' W 067°18'1615.9
2014-Aug-30 02:34N 48°53' W 067°39'1615.7
2014-Aug-30 01:33N 48°46' W 068°01'1614.6
2014-Aug-30 00:29N 48°39' W 068°23'1414.8
2014-Aug-29 23:33N 48°33' W 068°41'1615.7
2014-Aug-29 22:33N 48°25' W 069°01'1913.5
2014-Aug-29 21:07N 48°16' W 069°27'813.5
2014-Aug-29 20:33N 48°09' W 069°33'9 9.5
2014-Aug-29 19:33N 48°09' W 069°47'2 1.2
2014-Aug-29 17:31N 48°09' W 069°50'1111.4
2014-Aug-29 16:33N 48°04' W 069°36'1918.6
2014-Aug-29 15:33N 47°48' W 069°49'2118.0
2014-Aug-29 14:23N 47°32' W 070°09'1417.1
2014-Aug-29 13:33N 47°24' W 070°27'1616.1
2014-Aug-29 12:33N 47°10' W 070°39'1514.0
2014-Aug-29 11:31N 46°58' W 070°50'1413.0
2014-Aug-29 10:29N 46°50' W 071°07'1011.1
2014-Aug-29 09:33N 46°44' W 071°19'2115.3
2014-Aug-29 08:10N 46°40' W 071°49'1016.2
2014-Aug-29 07:33N 46°35' W 072°01'1514.8
2014-Aug-29 06:33N 46°26' W 072°19'1414.1
2014-Aug-29 05:33N 46°18' W 072°35'1914.0
2014-Aug-29 04:12N 46°07' W 072°58'1015.2
2014-Aug-29 03:34N 46°02' W 073°10'1615.6
2014-Aug-29 02:33N 45°48' W 073°20'1515.2
2014-Aug-29 01:34N 45°35' W 073°30'5 5.4
2014-Aug-29 00:33N 45°29' W 073°31'0 0.1
2014-Aug-28 23:33N 45°29' W 073°31'5 4.9
2014-Aug-28 22:33N 45°24' W 073°33'5 5.1
2014-Aug-28 21:33N 45°25' W 073°40'1211.7
2014-Aug-28 20:32N 45°19' W 073°55'2 2.4
2014-Aug-28 19:33N 45°17' W 073°57'7 6.6
2014-Aug-28 18:34N 45°13' W 074°04'9 8.9
2014-Aug-28 17:34N 45°13' W 074°17'1212.4
2014-Aug-28 16:33N 45°05' W 074°31'10 9.9
2014-Aug-28 15:33N 44°60' W 074°43'5 5.2
2014-Aug-28 14:33N 44°59' W 074°50'5 4.7
2014-Aug-28 13:33N 44°58' W 074°57'1111.1
2014-Aug-28 12:33N 44°53' W 075°11'8 7.8
2014-Aug-28 11:33N 44°49' W 075°20'1412.5
2014-Aug-28 10:29N 44°40' W 075°34'1112.2
2014-Aug-28 09:33N 44°31' W 075°45'1111.6
2014-Aug-28 08:33N 44°22' W 075°54'1110.6
2014-Aug-28 07:33N 44°15' W 076°05'1312.1
2014-Aug-28 06:29N 44°08' W 076°20'11514.6
2014-Aug-27 22:34N 43°37' W 078°55'1615.4
2014-Aug-27 21:31N 43°36' W 079°17'5 0.2
2014-Aug-26 21:25N 43°38' W 079°23'  
2014-Aug-22 23:28N 43°38' W 079°23'0 0.0
2014-Aug-22 22:22N 43°38' W 079°23'0 0.0
2014-Aug-22 19:10N 43°38' W 079°23'0 0.0
2014-Aug-20 18:06N 43°38' W 079°23'5 9.0
2014-Aug-20 17:32N 43°34' W 079°28'  
Track history (hours):
 
Tides and Currents Weather Stations Pressure Air Temp Water Temp Dewpoint Dewpoint Depression Visibility Wind Speed Wind Dir Waves Ship Positions

Dest Fox Harbr Too

Last reported at 2014-Aug-30 06:32 UTC. Time now 2014-Sep-03 04:44 UTC.
Position N 49°16' W 066°10'.

Length 50 m; draft 2.4 m.

Type: Pleasure craft. MMSI: 319370000.

Date/timePositionNaut miles runAvg speedWind from/ knotsBaromVisibWave heightAir tempDewpointWater temp
2014-Aug-30 06:32N 49°16' W 066°10'1616.3
2014-Aug-30 05:33N 49°12' W 066°33'1616.1
2014-Aug-30 04:34N 49°06' W 066°56'1515.2
2014-Aug-30 03:33N 48°60' W 067°18'1615.9
2014-Aug-30 02:34N 48°53' W 067°39'1615.7
2014-Aug-30 01:33N 48°46' W 068°01'1614.6
2014-Aug-30 00:29N 48°39' W 068°23'1414.8
2014-Aug-29 23:33N 48°33' W 068°41'1615.7
2014-Aug-29 22:33N 48°25' W 069°01'1913.5
2014-Aug-29 21:07N 48°16' W 069°27'813.5
2014-Aug-29 20:33N 48°09' W 069°33'9 9.5
2014-Aug-29 19:33N 48°09' W 069°47'2 1.2
2014-Aug-29 17:31N 48°09' W 069°50'1111.4
2014-Aug-29 16:33N 48°04' W 069°36'1918.6
2014-Aug-29 15:33N 47°48' W 069°49'2118.0
2014-Aug-29 14:23N 47°32' W 070°09'1417.1
2014-Aug-29 13:33N 47°24' W 070°27'1616.1
2014-Aug-29 12:33N 47°10' W 070°39'1514.0
2014-Aug-29 11:31N 46°58' W 070°50'1413.0
2014-Aug-29 10:29N 46°50' W 071°07'1011.1
2014-Aug-29 09:33N 46°44' W 071°19'2115.3
2014-Aug-29 08:10N 46°40' W 071°49'1016.2
2014-Aug-29 07:33N 46°35' W 072°01'1514.8
2014-Aug-29 06:33N 46°26' W 072°19'1414.1
2014-Aug-29 05:33N 46°18' W 072°35'1914.0
2014-Aug-29 04:12N 46°07' W 072°58'1015.2
2014-Aug-29 03:34N 46°02' W 073°10'1615.6
2014-Aug-29 02:33N 45°48' W 073°20'1515.2
2014-Aug-29 01:34N 45°35' W 073°30'5 5.4
2014-Aug-29 00:33N 45°29' W 073°31'0 0.1
2014-Aug-28 23:33N 45°29' W 073°31'5 4.9
2014-Aug-28 22:33N 45°24' W 073°33'5 5.1
2014-Aug-28 21:33N 45°25' W 073°40'1211.7
2014-Aug-28 20:32N 45°19' W 073°55'2 2.4
2014-Aug-28 19:33N 45°17' W 073°57'7 6.6
2014-Aug-28 18:34N 45°13' W 074°04'9 8.9
2014-Aug-28 17:34N 45°13' W 074°17'1212.4
2014-Aug-28 16:33N 45°05' W 074°31'10 9.9
2014-Aug-28 15:33N 44°60' W 074°43'5 5.2
2014-Aug-28 14:33N 44°59' W 074°50'5 4.7
2014-Aug-28 13:33N 44°58' W 074°57'1111.1
2014-Aug-28 12:33N 44°53' W 075°11'8 7.8
2014-Aug-28 11:33N 44°49' W 075°20'1412.5
2014-Aug-28 10:29N 44°40' W 075°34'1112.2
2014-Aug-28 09:33N 44°31' W 075°45'1111.6
2014-Aug-28 08:33N 44°22' W 075°54'1110.6
2014-Aug-28 07:33N 44°15' W 076°05'1312.1
2014-Aug-28 06:29N 44°08' W 076°20'11514.6
2014-Aug-27 22:34N 43°37' W 078°55'1615.4
2014-Aug-27 21:31N 43°36' W 079°17'5 0.2
2014-Aug-26 21:25N 43°38' W 079°23'  
2014-Aug-22 23:28N 43°38' W 079°23'0 0.0
2014-Aug-22 22:22N 43°38' W 079°23'0 0.0
2014-Aug-22 19:10N 43°38' W 079°23'0 0.0
2014-Aug-20 18:06N 43°38' W 079°23'5 9.0
2014-Aug-20 17:32N 43°34' W 079°28'  

Dump ship's entire track history